Введите код ICAO:



Lithuania (LT) КАУНАС (EYKA)

Lithuania (LT) КАУНАС (EYKA) Архив погоды
Фактическая погодаПрогноз погоды
Дата: 07 апреля 2020
Время: 12:50 UTC
Ветер: 230°-8 м/с
Направление ветра меняется от 200° до 260°
Погода хорошая
Температура: +20°C
Точка   росы: -0°C
Влажность: 26 %
QNH: 1026 гПа
Прогноз получен: 07 апреля 2020, в 11:00 UTC
Прогноз на 07-08 апреля с 12.00 до 12.00 UTC
Ветер: 240°-6 м/с порывы до 11 м/с
Погода хорошая
 ИЗМЕНЕНИЯ 07 апреля с 16.00 до 18.00 UTC
Ветер: 320°-6 м/с
 ИЗМЕНЕНИЯ 07 апреля с 22.00 до 24.00 UTC
Ветер: переменный - 1 м/с
 
METAR EYKA 071250Z 23016KT 200V260 CAVOK 20/M00 Q1026TAF EYKA 071100Z 0712/0812 24012G22KT CAVOK BECMG 0716/0718 32012KT BECMG 0722/0724 VRB02KT

Для получения погоды по необходимым аэродромам введите 4-буквенный код ICAO и нажмите ЗАПРОС.
Коды аэродромов можно скачать здесь.
Если погода отображается, а названия аэропорта нет, сообщите нам и мы добавим его в список.
В случие обнаружения некорректной раскодировки, сообщите нам и ошибка будет исправлена.
Эта информация взята из открытых источников и должна использоваться исключительно в ознакомительных целях. Не используйте ее для планирования полетов-перелетов или для мероприятий, где возможны материальные потери или человеческие жертвы. Для этого обращайтесь в официальные структуры.